PWSweather.com
Personal Weather Stations
Station Observations
KOHAVON11
Long Road Station, Avon, OH 44011

Long Road StationAvon, OH 44011

Lat: 41.437, Lon: -82.0477

Elevation: 686

Station Type: Davis Vantage Pro2

http://www.avon-weather.com

High Low Average
Temperature 29.5°F-1.4°C -1.6°F-18.7°C 13.1°F-10.5°C
Dew Point 12.8°F-10.7°C -8.4°F-22.4°C 1.4°F-17.0°C
Winds 22.0 mph 35.4 kmh Calm Calm 8.0 mph S12.9 kmh S
Wind Gusts 29.0 mph46.7 kmh 1.0 mph1.6 kmh 15.0 mph24.1 kmh
Humidity 74% 44% 61%
Pressure 30.63 in1037.3 mb 30.13 in1020.3 mb -
Precipitation 0.00 in0.0 mm - -
Hour Temp Dew Point Humidity Winds Wind Gusts Pressure Precip Precip Rate Daily Precip Total
12:01 AM -0.9°F-18.3°C -7.7°F-22.1°C 72% Calm Calm 1.0 mph1.6 kmh 30.63 in1037.3 mb 0.00 in0.0 mm 0.00 in0.0 mm 0.00 in0.0 mm
12:06 AM -1.0°F-18.3°C -7.8°F-22.1°C 72% 1.0 mph S1.6 kmh S 2.0 mph3.2 kmh 30.63 in1037.3 mb 0.00 in0.0 mm 0.00 in0.0 mm 0.00 in0.0 mm
12:11 AM -1.2°F-18.4°C -8.0°F-22.2°C 72% Calm Calm 2.0 mph3.2 kmh 30.63 in1037.3 mb 0.00 in0.0 mm 0.00 in0.0 mm 0.00 in0.0 mm
12:16 AM -1.4°F-18.6°C -8.2°F-22.3°C 72% Calm Calm 2.0 mph3.2 kmh 30.63 in1037.3 mb 0.00 in0.0 mm 0.00 in0.0 mm 0.00 in0.0 mm
12:21 AM -1.5°F-18.6°C -8.3°F-22.4°C 72% 3.0 mph S4.8 kmh S 4.0 mph6.4 kmh 30.62 in1036.9 mb 0.00 in0.0 mm 0.00 in0.0 mm 0.00 in0.0 mm
12:26 AM -1.5°F-18.6°C -8.3°F-22.4°C 72% 2.0 mph S3.2 kmh S 4.0 mph6.4 kmh 30.62 in1036.9 mb 0.00 in0.0 mm 0.00 in0.0 mm 0.00 in0.0 mm
12:31 AM -1.6°F-18.7°C -8.4°F-22.4°C 72% 1.0 mph S1.6 kmh S 4.0 mph6.4 kmh 30.62 in1036.9 mb 0.00 in0.0 mm 0.00 in0.0 mm 0.00 in0.0 mm
12:36 AM -1.4°F-18.6°C -7.9°F-22.2°C 73% 4.0 mph S6.4 kmh S 5.0 mph8.0 kmh 30.62 in1036.9 mb 0.00 in0.0 mm 0.00 in0.0 mm 0.00 in0.0 mm
12:41 AM -1.2°F-18.4°C -7.7°F-22.1°C 73% 3.0 mph S4.8 kmh S 6.0 mph9.7 kmh 30.62 in1036.9 mb 0.00 in0.0 mm 0.00 in0.0 mm 0.00 in0.0 mm
12:46 AM -1.0°F-18.3°C -7.5°F-21.9°C 73% 6.0 mph S9.7 kmh S 6.0 mph9.7 kmh 30.62 in1036.9 mb 0.00 in0.0 mm 0.00 in0.0 mm 0.00 in0.0 mm
12:51 AM -0.7°F-18.2°C -6.9°F-21.6°C 74% 4.0 mph S6.4 kmh S 7.0 mph11.3 kmh 30.62 in1036.9 mb 0.00 in0.0 mm 0.00 in0.0 mm 0.00 in0.0 mm
12:56 AM -0.6°F-18.1°C -6.8°F-21.6°C 74% Calm Calm 7.0 mph11.3 kmh 30.62 in1036.9 mb 0.00 in0.0 mm 0.00 in0.0 mm 0.00 in0.0 mm
01:01 AM -0.6°F-18.1°C -6.8°F-21.6°C 74% 3.0 mph S4.8 kmh S 7.0 mph11.3 kmh 30.62 in1036.9 mb 0.00 in0.0 mm 0.00 in0.0 mm 0.00 in0.0 mm
01:06 AM -0.6°F-18.1°C -6.8°F-21.6°C 74% 1.0 mph S1.6 kmh S 7.0 mph11.3 kmh 30.61 in1036.6 mb 0.00 in0.0 mm 0.00 in0.0 mm 0.00 in0.0 mm
01:11 AM -0.6°F-18.1°C -6.8°F-21.6°C 74% 1.0 mph S1.6 kmh S 1.0 mph1.6 kmh 30.61 in1036.6 mb 0.00 in0.0 mm 0.00 in0.0 mm 0.00 in0.0 mm
01:16 AM -0.6°F-18.1°C -6.8°F-21.6°C 74% 1.0 mph S1.6 kmh S 3.0 mph4.8 kmh 30.61 in1036.6 mb 0.00 in0.0 mm 0.00 in0.0 mm 0.00 in0.0 mm
01:21 AM -0.6°F-18.1°C -6.8°F-21.6°C 74% 3.0 mph SSE4.8 kmh SSE 4.0 mph6.4 kmh 30.61 in1036.6 mb 0.00 in0.0 mm 0.00 in0.0 mm 0.00 in0.0 mm
01:26 AM -0.7°F-18.2°C -6.9°F-21.6°C 74% 1.0 mph SSE1.6 kmh SSE 4.0 mph6.4 kmh 30.61 in1036.6 mb 0.00 in0.0 mm 0.00 in0.0 mm 0.00 in0.0 mm
01:31 AM -0.8°F-18.2°C -7.0°F-21.7°C 74% 3.0 mph SE4.8 kmh SE 4.0 mph6.4 kmh 30.61 in1036.6 mb 0.00 in0.0 mm 0.00 in0.0 mm 0.00 in0.0 mm
01:36 AM -1.0°F-18.3°C -7.2°F-21.8°C 74% 2.0 mph SSE3.2 kmh SSE 4.0 mph6.4 kmh 30.61 in1036.6 mb 0.00 in0.0 mm 0.00 in0.0 mm 0.00 in0.0 mm
01:41 AM -1.0°F-18.3°C -7.2°F-21.8°C 74% 1.0 mph SE1.6 kmh SE 4.0 mph6.4 kmh 30.60 in1036.2 mb 0.00 in0.0 mm 0.00 in0.0 mm 0.00 in0.0 mm
01:46 AM -1.1°F-18.4°C -7.3°F-21.8°C 74% 2.0 mph SSE3.2 kmh SSE 5.0 mph8.0 kmh 30.60 in1036.2 mb 0.00 in0.0 mm 0.00 in0.0 mm 0.00 in0.0 mm
01:51 AM -1.1°F-18.4°C -7.3°F-21.8°C 74% 2.0 mph SE3.2 kmh SE 5.0 mph8.0 kmh 30.60 in1036.2 mb 0.00 in0.0 mm 0.00 in0.0 mm 0.00 in0.0 mm
01:56 AM -1.2°F-18.4°C -7.4°F-21.9°C 74% 2.0 mph SSE3.2 kmh SSE 5.0 mph8.0 kmh 30.59 in1035.9 mb 0.00 in0.0 mm 0.00 in0.0 mm 0.00 in0.0 mm
02:01 AM -1.1°F-18.4°C -7.3°F-21.8°C 74% 2.0 mph SE3.2 kmh SE 5.0 mph8.0 kmh 30.59 in1035.9 mb 0.00 in0.0 mm 0.00 in0.0 mm 0.00 in0.0 mm
02:06 AM -1.2°F-18.4°C -7.4°F-21.9°C 74% 4.0 mph SE6.4 kmh SE 4.0 mph6.4 kmh 30.59 in1035.9 mb 0.00 in0.0 mm 0.00 in0.0 mm 0.00 in0.0 mm
02:11 AM -1.2°F-18.4°C -7.4°F-21.9°C 74% 2.0 mph SSE3.2 kmh SSE 5.0 mph8.0 kmh 30.59 in1035.9 mb 0.00 in0.0 mm 0.00 in0.0 mm 0.00 in0.0 mm
02:16 AM -1.1°F-18.4°C -7.3°F-21.8°C 74% 3.0 mph SSE4.8 kmh SSE 5.0 mph8.0 kmh 30.59 in1035.9 mb 0.00 in0.0 mm 0.00 in0.0 mm 0.00 in0.0 mm
02:20 AM -1.2°F-18.4°C -7.4°F-21.9°C 74% 3.0 mph SSE4.8 kmh SSE 4.0 mph6.4 kmh 30.59 in1035.9 mb 0.00 in0.0 mm 0.00 in0.0 mm 0.00 in0.0 mm
02:25 AM -1.1°F-18.4°C -7.3°F-21.8°C 74% 4.0 mph SE6.4 kmh SE 5.0 mph8.0 kmh 30.59 in1035.9 mb 0.00 in0.0 mm 0.00 in0.0 mm 0.00 in0.0 mm
02:30 AM -1.1°F-18.4°C -7.3°F-21.8°C 74% 1.0 mph SSE1.6 kmh SSE 5.0 mph8.0 kmh 30.59 in1035.9 mb 0.00 in0.0 mm 0.00 in0.0 mm 0.00 in0.0 mm
02:35 AM -1.0°F-18.3°C -7.2°F-21.8°C 74% 3.0 mph SSE4.8 kmh SSE 5.0 mph8.0 kmh 30.58 in1035.6 mb 0.00 in0.0 mm 0.00 in0.0 mm 0.00 in0.0 mm
02:40 AM -1.0°F-18.3°C -7.2°F-21.8°C 74% 2.0 mph SSE3.2 kmh SSE 5.0 mph8.0 kmh 30.59 in1035.9 mb 0.00 in0.0 mm 0.00 in0.0 mm 0.00 in0.0 mm
02:45 AM -0.9°F-18.3°C -7.1°F-21.7°C 74% 3.0 mph SSE4.8 kmh SSE 4.0 mph6.4 kmh 30.58 in1035.6 mb 0.00 in0.0 mm 0.00 in0.0 mm 0.00 in0.0 mm
02:50 AM -1.0°F-18.3°C -7.2°F-21.8°C 74% 1.0 mph SSE1.6 kmh SSE 4.0 mph6.4 kmh 30.58 in1035.6 mb 0.00 in0.0 mm 0.00 in0.0 mm 0.00 in0.0 mm
02:55 AM -1.0°F-18.3°C -7.2°F-21.8°C 74% 2.0 mph SSW3.2 kmh SSW 4.0 mph6.4 kmh 30.59 in1035.9 mb 0.00 in0.0 mm 0.00 in0.0 mm 0.00 in0.0 mm
03:00 AM -1.0°F-18.3°C -7.2°F-21.8°C 74% 1.0 mph S1.6 kmh S 4.0 mph6.4 kmh 30.59 in1035.9 mb 0.00 in0.0 mm 0.00 in0.0 mm 0.00 in0.0 mm
03:05 AM -1.0°F-18.3°C -7.2°F-21.8°C 74% 2.0 mph S3.2 kmh S 4.0 mph6.4 kmh 30.59 in1035.9 mb 0.00 in0.0 mm 0.00 in0.0 mm 0.00 in0.0 mm
03:10 AM -1.1°F-18.4°C -7.3°F-21.8°C 74% 1.0 mph SSE1.6 kmh SSE 4.0 mph6.4 kmh 30.59 in1035.9 mb 0.00 in0.0 mm 0.00 in0.0 mm 0.00 in0.0 mm
03:15 AM -1.2°F-18.4°C -7.4°F-21.9°C 74% 3.0 mph ESE4.8 kmh ESE 4.0 mph6.4 kmh 30.58 in1035.6 mb 0.00 in0.0 mm 0.00 in0.0 mm 0.00 in0.0 mm
03:20 AM -1.2°F-18.4°C -7.4°F-21.9°C 74% 4.0 mph SSW6.4 kmh SSW 4.0 mph6.4 kmh 30.59 in1035.9 mb 0.00 in0.0 mm 0.00 in0.0 mm 0.00 in0.0 mm
03:25 AM -1.3°F-18.5°C -7.5°F-21.9°C 74% 3.0 mph SE4.8 kmh SE 6.0 mph9.7 kmh 30.58 in1035.6 mb 0.00 in0.0 mm 0.00 in0.0 mm 0.00 in0.0 mm
03:30 AM -1.3°F-18.5°C -7.5°F-21.9°C 74% 4.0 mph S6.4 kmh S 6.0 mph9.7 kmh 30.58 in1035.6 mb 0.00 in0.0 mm 0.00 in0.0 mm 0.00 in0.0 mm
03:35 AM -1.4°F-18.6°C -7.6°F-22.0°C 74% 2.0 mph SE3.2 kmh SE 7.0 mph11.3 kmh 30.58 in1035.6 mb 0.00 in0.0 mm 0.00 in0.0 mm 0.00 in0.0 mm
03:40 AM -1.4°F-18.6°C -7.6°F-22.0°C 74% 2.0 mph SSE3.2 kmh SSE 7.0 mph11.3 kmh 30.58 in1035.6 mb 0.00 in0.0 mm 0.00 in0.0 mm 0.00 in0.0 mm
03:45 AM -1.3°F-18.5°C -7.5°F-21.9°C 74% 3.0 mph SSE4.8 kmh SSE 7.0 mph11.3 kmh 30.59 in1035.9 mb 0.00 in0.0 mm 0.00 in0.0 mm 0.00 in0.0 mm
03:50 AM -1.3°F-18.5°C -7.5°F-21.9°C 74% 4.0 mph SSE6.4 kmh SSE 7.0 mph11.3 kmh 30.58 in1035.6 mb 0.00 in0.0 mm 0.00 in0.0 mm 0.00 in0.0 mm
03:55 AM -1.3°F-18.5°C -7.5°F-21.9°C 74% 1.0 mph S1.6 kmh S 5.0 mph8.0 kmh 30.59 in1035.9 mb 0.00 in0.0 mm 0.00 in0.0 mm 0.00 in0.0 mm
04:00 AM -1.3°F-18.5°C -7.5°F-21.9°C 74% 2.0 mph S3.2 kmh S 5.0 mph8.0 kmh 30.59 in1035.9 mb 0.00 in0.0 mm 0.00 in0.0 mm 0.00 in0.0 mm
04:05 AM -1.3°F-18.5°C -7.5°F-21.9°C 74% Calm Calm 5.0 mph8.0 kmh 30.59 in1035.9 mb 0.00 in0.0 mm 0.00 in0.0 mm 0.00 in0.0 mm
04:10 AM -1.3°F-18.5°C -7.5°F-21.9°C 74% Calm Calm 5.0 mph8.0 kmh 30.58 in1035.6 mb 0.00 in0.0 mm 0.00 in0.0 mm 0.00 in0.0 mm
04:15 AM -1.3°F-18.5°C -7.5°F-21.9°C 74% Calm Calm 5.0 mph8.0 kmh 30.57 in1035.2 mb 0.00 in0.0 mm 0.00 in0.0 mm 0.00 in0.0 mm
04:20 AM -1.3°F-18.5°C -7.5°F-21.9°C 74% 2.0 mph S3.2 kmh S 5.0 mph8.0 kmh 30.57 in1035.2 mb 0.00 in0.0 mm 0.00 in0.0 mm 0.00 in0.0 mm
04:25 AM -1.3°F-18.5°C -7.5°F-21.9°C 74% Calm Calm 5.0 mph8.0 kmh 30.58 in1035.6 mb 0.00 in0.0 mm 0.00 in0.0 mm 0.00 in0.0 mm
04:30 AM -1.3°F-18.5°C -7.5°F-21.9°C 74% 1.0 mph SSW1.6 kmh SSW 5.0 mph8.0 kmh 30.58 in1035.6 mb 0.00 in0.0 mm 0.00 in0.0 mm 0.00 in0.0 mm
04:35 AM -1.3°F-18.5°C -7.5°F-21.9°C 74% 2.0 mph SSW3.2 kmh SSW 5.0 mph8.0 kmh 30.58 in1035.6 mb 0.00 in0.0 mm 0.00 in0.0 mm 0.00 in0.0 mm
04:40 AM -1.3°F-18.5°C -7.5°F-21.9°C 74% 2.0 mph S3.2 kmh S 6.0 mph9.7 kmh 30.57 in1035.2 mb 0.00 in0.0 mm 0.00 in0.0 mm 0.00 in0.0 mm
04:45 AM -1.3°F-18.5°C -7.5°F-21.9°C 74% 3.0 mph SSW4.8 kmh SSW 6.0 mph9.7 kmh 30.57 in1035.2 mb 0.00 in0.0 mm 0.00 in0.0 mm 0.00 in0.0 mm
04:50 AM -1.1°F-18.4°C -7.3°F-21.8°C 74% 5.0 mph S8.0 kmh S 6.0 mph9.7 kmh 30.57 in1035.2 mb 0.00 in0.0 mm 0.00 in0.0 mm 0.00 in0.0 mm
04:55 AM -1.0°F-18.3°C -7.2°F-21.8°C 74% Calm Calm 6.0 mph9.7 kmh 30.58 in1035.6 mb 0.00 in0.0 mm 0.00 in0.0 mm 0.00 in0.0 mm
05:00 AM -0.9°F-18.3°C -7.1°F-21.7°C 74% 3.0 mph SSW4.8 kmh SSW 6.0 mph9.7 kmh 30.57 in1035.2 mb 0.00 in0.0 mm 0.00 in0.0 mm 0.00 in0.0 mm
05:05 AM -0.9°F-18.3°C -7.1°F-21.7°C 74% 3.0 mph SSW4.8 kmh SSW 6.0 mph9.7 kmh 30.57 in1035.2 mb 0.00 in0.0 mm 0.00 in0.0 mm 0.00 in0.0 mm
05:10 AM -0.7°F-18.2°C -6.9°F-21.6°C 74% 1.0 mph SSE1.6 kmh SSE 5.0 mph8.0 kmh 30.57 in1035.2 mb 0.00 in0.0 mm 0.00 in0.0 mm 0.00 in0.0 mm
05:15 AM -0.6°F-18.1°C -6.8°F-21.6°C 74% Calm Calm 5.0 mph8.0 kmh 30.57 in1035.2 mb 0.00 in0.0 mm 0.00 in0.0 mm 0.00 in0.0 mm
05:20 AM -0.5°F-18.1°C -6.7°F-21.5°C 74% 2.0 mph S3.2 kmh S 5.0 mph8.0 kmh 30.57 in1035.2 mb 0.00 in0.0 mm 0.00 in0.0 mm 0.00 in0.0 mm
05:25 AM -0.4°F-18.0°C -6.7°F-21.5°C 74% 3.0 mph S4.8 kmh S 5.0 mph8.0 kmh 30.56 in1034.9 mb 0.00 in0.0 mm 0.00 in0.0 mm 0.00 in0.0 mm
05:30 AM -0.4°F-18.0°C -6.7°F-21.5°C 74% 2.0 mph S3.2 kmh S 4.0 mph6.4 kmh 30.57 in1035.2 mb 0.00 in0.0 mm 0.00 in0.0 mm 0.00 in0.0 mm
05:35 AM -0.3°F-17.9°C -6.6°F-21.4°C 74% 5.0 mph SSW8.0 kmh SSW 5.0 mph8.0 kmh 30.57 in1035.2 mb 0.00 in0.0 mm 0.00 in0.0 mm 0.00 in0.0 mm
05:40 AM -0.1°F-17.8°C -6.4°F-21.3°C 74% 3.0 mph SSW4.8 kmh SSW 8.0 mph12.9 kmh 30.57 in1035.2 mb 0.00 in0.0 mm 0.00 in0.0 mm 0.00 in0.0 mm
05:45 AM 0.2°F-17.7°C -6.1°F-21.2°C 74% 2.0 mph S3.2 kmh S 8.0 mph12.9 kmh 30.56 in1034.9 mb 0.00 in0.0 mm 0.00 in0.0 mm 0.00 in0.0 mm
05:50 AM 0.3°F-17.6°C -6.0°F-21.1°C 74% 3.0 mph SSE4.8 kmh SSE 8.0 mph12.9 kmh 30.56 in1034.9 mb 0.00 in0.0 mm 0.00 in0.0 mm 0.00 in0.0 mm
05:55 AM 0.5°F-17.5°C -5.8°F-21.0°C 74% 3.0 mph SW4.8 kmh SW 8.0 mph12.9 kmh 30.56 in1034.9 mb 0.00 in0.0 mm 0.00 in0.0 mm 0.00 in0.0 mm
06:00 AM 0.8°F-17.3°C -5.5°F-20.8°C 74% 5.0 mph S8.0 kmh S 7.0 mph11.3 kmh 30.56 in1034.9 mb 0.00 in0.0 mm 0.00 in0.0 mm 0.00 in0.0 mm
06:05 AM 1.1°F-17.2°C -5.2°F-20.7°C 74% 4.0 mph S6.4 kmh S 8.0 mph12.9 kmh 30.57 in1035.2 mb 0.00 in0.0 mm 0.00 in0.0 mm 0.00 in0.0 mm
06:10 AM 1.2°F-17.1°C -5.1°F-20.6°C 74% 3.0 mph S4.8 kmh S 8.0 mph12.9 kmh 30.57 in1035.2 mb 0.00 in0.0 mm 0.00 in0.0 mm 0.00 in0.0 mm
06:15 AM 1.3°F-17.1°C -5.0°F-20.6°C 74% 4.0 mph SSW6.4 kmh SSW 8.0 mph12.9 kmh 30.57 in1035.2 mb 0.00 in0.0 mm 0.00 in0.0 mm 0.00 in0.0 mm
06:20 AM 1.5°F-16.9°C -4.8°F-20.4°C 74% 4.0 mph S6.4 kmh S 8.0 mph12.9 kmh 30.57 in1035.2 mb 0.00 in0.0 mm 0.00 in0.0 mm 0.00 in0.0 mm
06:25 AM 1.7°F-16.8°C -4.6°F-20.3°C 74% 5.0 mph S8.0 kmh S 6.0 mph9.7 kmh 30.57 in1035.2 mb 0.00 in0.0 mm 0.00 in0.0 mm 0.00 in0.0 mm
06:30 AM 1.8°F-16.8°C -4.5°F-20.3°C 74% 2.0 mph S3.2 kmh S 6.0 mph9.7 kmh 30.57 in1035.2 mb 0.00 in0.0 mm 0.00 in0.0 mm 0.00 in0.0 mm
06:38 AM 2.1°F-16.6°C -4.2°F-20.1°C 74% 2.0 mph SW3.2 kmh SW 4.0 mph6.4 kmh 30.57 in1035.2 mb 0.00 in0.0 mm 0.00 in0.0 mm 0.00 in0.0 mm
06:43 AM 2.2°F-16.6°C -4.1°F-20.1°C 74% 2.0 mph S3.2 kmh S 7.0 mph11.3 kmh 30.56 in1034.9 mb 0.00 in0.0 mm 0.00 in0.0 mm 0.00 in0.0 mm
06:48 AM 2.3°F-16.5°C -4.0°F-20.0°C 74% 1.0 mph SE1.6 kmh SE 7.0 mph11.3 kmh 30.55 in1034.5 mb 0.00 in0.0 mm 0.00 in0.0 mm 0.00 in0.0 mm
06:53 AM 2.4°F-16.4°C -3.9°F-19.9°C 74% 3.0 mph SE4.8 kmh SE 7.0 mph11.3 kmh 30.55 in1034.5 mb 0.00 in0.0 mm 0.00 in0.0 mm 0.00 in0.0 mm
06:58 AM 2.6°F-16.3°C -3.8°F-19.9°C 74% 2.0 mph SE3.2 kmh SE 7.0 mph11.3 kmh 30.54 in1034.2 mb 0.00 in0.0 mm 0.00 in0.0 mm 0.00 in0.0 mm
07:03 AM 2.7°F-16.3°C -3.7°F-19.8°C 74% 1.0 mph S1.6 kmh S 7.0 mph11.3 kmh 30.55 in1034.5 mb 0.00 in0.0 mm 0.00 in0.0 mm 0.00 in0.0 mm
07:08 AM 2.8°F-16.2°C -3.6°F-19.8°C 74% 1.0 mph S1.6 kmh S 7.0 mph11.3 kmh 30.55 in1034.5 mb 0.00 in0.0 mm 0.00 in0.0 mm 0.00 in0.0 mm
07:13 AM 3.0°F-16.1°C -3.4°F-19.7°C 74% 2.0 mph S3.2 kmh S 7.0 mph11.3 kmh 30.54 in1034.2 mb 0.00 in0.0 mm 0.00 in0.0 mm 0.00 in0.0 mm
07:18 AM 3.2°F-16.0°C -3.2°F-19.6°C 74% 4.0 mph SE6.4 kmh SE 7.0 mph11.3 kmh 30.54 in1034.2 mb 0.00 in0.0 mm 0.00 in0.0 mm 0.00 in0.0 mm
07:23 AM 3.5°F-15.8°C -2.9°F-19.4°C 74% 4.0 mph SSE6.4 kmh SSE 8.0 mph12.9 kmh 30.54 in1034.2 mb 0.00 in0.0 mm 0.00 in0.0 mm 0.00 in0.0 mm
07:28 AM 4.0°F-15.6°C -2.4°F-19.1°C 74% 3.0 mph S4.8 kmh S 9.0 mph14.5 kmh 30.54 in1034.2 mb 0.00 in0.0 mm 0.00 in0.0 mm 0.00 in0.0 mm
07:33 AM 4.6°F-15.2°C -1.8°F-18.8°C 74% 10.0 mph SSE16.1 kmh SSE 10.0 mph16.1 kmh 30.54 in1034.2 mb 0.00 in0.0 mm 0.00 in0.0 mm 0.00 in0.0 mm
07:38 AM 5.3°F-14.8°C -1.1°F-18.4°C 74% 5.0 mph S8.0 kmh S 11.0 mph17.7 kmh 30.54 in1034.2 mb 0.00 in0.0 mm 0.00 in0.0 mm 0.00 in0.0 mm
07:43 AM 5.9°F-14.5°C -0.6°F-18.1°C 74% 3.0 mph S4.8 kmh S 12.0 mph19.3 kmh 30.54 in1034.2 mb 0.00 in0.0 mm 0.00 in0.0 mm 0.00 in0.0 mm
07:48 AM 6.3°F-14.3°C -0.5°F-18.1°C 73% 4.0 mph SSE6.4 kmh SSE 12.0 mph19.3 kmh 30.54 in1034.2 mb 0.00 in0.0 mm 0.00 in0.0 mm 0.00 in0.0 mm
07:53 AM 6.7°F-14.1°C -0.4°F-18.0°C 72% 7.0 mph SSW11.3 kmh SSW 12.0 mph19.3 kmh 30.53 in1033.9 mb 0.00 in0.0 mm 0.00 in0.0 mm 0.00 in0.0 mm
07:58 AM 7.0°F-13.9°C -0.4°F-18.0°C 71% 7.0 mph S11.3 kmh S 12.0 mph19.3 kmh 30.54 in1034.2 mb 0.00 in0.0 mm 0.00 in0.0 mm 0.00 in0.0 mm
08:03 AM 7.2°F-13.8°C -0.2°F-17.9°C 71% 8.0 mph SE12.9 kmh SE 11.0 mph17.7 kmh 30.52 in1033.5 mb 0.00 in0.0 mm 0.00 in0.0 mm 0.00 in0.0 mm
08:08 AM 7.4°F-13.7°C -0.3°F-17.9°C 70% 7.0 mph S11.3 kmh S 14.0 mph22.5 kmh 30.53 in1033.9 mb 0.00 in0.0 mm 0.00 in0.0 mm 0.00 in0.0 mm
08:13 AM 7.5°F-13.6°C -0.6°F-18.1°C 69% 8.0 mph S12.9 kmh S 14.0 mph22.5 kmh 30.52 in1033.5 mb 0.00 in0.0 mm 0.00 in0.0 mm 0.00 in0.0 mm
08:18 AM 7.7°F-13.5°C -0.4°F-18.0°C 69% 3.0 mph S4.8 kmh S 14.0 mph22.5 kmh 30.52 in1033.5 mb 0.00 in0.0 mm 0.00 in0.0 mm 0.00 in0.0 mm
08:23 AM 7.9°F-13.4°C -0.5°F-18.1°C 68% 6.0 mph SSW9.7 kmh SSW 14.0 mph22.5 kmh 30.52 in1033.5 mb 0.00 in0.0 mm 0.00 in0.0 mm 0.00 in0.0 mm
08:28 AM 8.1°F-13.3°C -0.6°F-18.1°C 67% 10.0 mph S16.1 kmh S 12.0 mph19.3 kmh 30.52 in1033.5 mb 0.00 in0.0 mm 0.00 in0.0 mm 0.00 in0.0 mm
08:33 AM 8.1°F-13.3°C -0.6°F-18.1°C 67% 7.0 mph SSE11.3 kmh SSE 12.0 mph19.3 kmh 30.52 in1033.5 mb 0.00 in0.0 mm 0.00 in0.0 mm 0.00 in0.0 mm
08:38 AM 8.2°F-13.2°C -0.5°F-18.1°C 67% 12.0 mph SE19.3 kmh SE 14.0 mph22.5 kmh 30.52 in1033.5 mb 0.00 in0.0 mm 0.00 in0.0 mm 0.00 in0.0 mm
08:43 AM 8.3°F-13.2°C -0.8°F-18.2°C 66% 4.0 mph SSW6.4 kmh SSW 14.0 mph22.5 kmh 30.52 in1033.5 mb 0.00 in0.0 mm 0.00 in0.0 mm 0.00 in0.0 mm
08:48 AM 8.4°F-13.1°C -0.7°F-18.2°C 66% 4.0 mph S6.4 kmh S 14.0 mph22.5 kmh 30.52 in1033.5 mb 0.00 in0.0 mm 0.00 in0.0 mm 0.00 in0.0 mm
08:53 AM 8.5°F-13.1°C -0.6°F-18.1°C 66% 7.0 mph S11.3 kmh S 14.0 mph22.5 kmh 30.52 in1033.5 mb 0.00 in0.0 mm 0.00 in0.0 mm 0.00 in0.0 mm
08:58 AM 8.6°F-13.0°C -0.8°F-18.2°C 65% 9.0 mph S14.5 kmh S 14.0 mph22.5 kmh 30.52 in1033.5 mb 0.00 in0.0 mm 0.00 in0.0 mm 0.00 in0.0 mm
09:03 AM 8.6°F-13.0°C -0.8°F-18.2°C 65% 9.0 mph S14.5 kmh S 14.0 mph22.5 kmh 30.52 in1033.5 mb 0.00 in0.0 mm 0.00 in0.0 mm 0.00 in0.0 mm
09:08 AM 8.7°F-12.9°C -0.7°F-18.2°C 65% 4.0 mph S6.4 kmh S 14.0 mph22.5 kmh 30.51 in1033.2 mb 0.00 in0.0 mm 0.00 in0.0 mm 0.00 in0.0 mm
09:13 AM 8.7°F-12.9°C -0.7°F-18.2°C 65% 10.0 mph S16.1 kmh S 14.0 mph22.5 kmh 30.51 in1033.2 mb 0.00 in0.0 mm 0.00 in0.0 mm 0.00 in0.0 mm
09:18 AM 8.7°F-12.9°C -0.7°F-18.2°C 65% 9.0 mph S14.5 kmh S 15.0 mph24.1 kmh 30.51 in1033.2 mb 0.00 in0.0 mm 0.00 in0.0 mm 0.00 in0.0 mm
09:23 AM 8.9°F-12.8°C -0.5°F-18.1°C 65% 7.0 mph S11.3 kmh S 15.0 mph24.1 kmh 30.51 in1033.2 mb 0.00 in0.0 mm 0.00 in0.0 mm 0.00 in0.0 mm
09:28 AM 9.0°F-12.8°C -0.4°F-18.0°C 65% 12.0 mph S19.3 kmh S 15.0 mph24.1 kmh 30.52 in1033.5 mb 0.00 in0.0 mm 0.00 in0.0 mm 0.00 in0.0 mm
09:33 AM 9.3°F-12.6°C -0.5°F-18.1°C 64% 11.0 mph S17.7 kmh S 15.0 mph24.1 kmh 30.51 in1033.2 mb 0.00 in0.0 mm 0.00 in0.0 mm 0.00 in0.0 mm
09:38 AM 9.5°F-12.5°C -0.3°F-17.9°C 64% 13.0 mph S20.9 kmh S 16.0 mph25.7 kmh 30.51 in1033.2 mb 0.00 in0.0 mm 0.00 in0.0 mm 0.00 in0.0 mm
09:43 AM 9.6°F-12.4°C -0.2°F-17.9°C 64% 7.0 mph S11.3 kmh S 16.0 mph25.7 kmh 30.50 in1032.8 mb 0.00 in0.0 mm 0.00 in0.0 mm 0.00 in0.0 mm
09:48 AM 9.8°F-12.3°C 0.0°F-17.8°C 64% 4.0 mph SSW6.4 kmh SSW 17.0 mph27.4 kmh 30.50 in1032.8 mb 0.00 in0.0 mm 0.00 in0.0 mm 0.00 in0.0 mm
09:53 AM 9.9°F-12.3°C 0.1°F-17.7°C 64% 8.0 mph SSE12.9 kmh SSE 17.0 mph27.4 kmh 30.50 in1032.8 mb 0.00 in0.0 mm 0.00 in0.0 mm 0.00 in0.0 mm
09:58 AM 10.1°F-12.2°C 0.3°F-17.6°C 64% 16.0 mph S25.7 kmh S 17.0 mph27.4 kmh 30.50 in1032.8 mb 0.00 in0.0 mm 0.00 in0.0 mm 0.00 in0.0 mm
10:03 AM 10.4°F-12.0°C 0.6°F-17.4°C 64% 8.0 mph SSW12.9 kmh SSW 17.0 mph27.4 kmh 30.49 in1032.5 mb 0.00 in0.0 mm 0.00 in0.0 mm 0.00 in0.0 mm
10:08 AM 10.6°F-11.9°C 0.8°F-17.3°C 64% 7.0 mph S11.3 kmh S 16.0 mph25.7 kmh 30.49 in1032.5 mb 0.00 in0.0 mm 0.00 in0.0 mm 0.00 in0.0 mm
10:13 AM 10.9°F-11.7°C 1.0°F-17.2°C 64% 8.0 mph SSW12.9 kmh SSW 16.0 mph25.7 kmh 30.49 in1032.5 mb 0.00 in0.0 mm 0.00 in0.0 mm 0.00 in0.0 mm
10:18 AM 11.1°F-11.6°C 1.2°F-17.1°C 64% 5.0 mph SSW8.0 kmh SSW 19.0 mph30.6 kmh 30.48 in1032.2 mb 0.00 in0.0 mm 0.00 in0.0 mm 0.00 in0.0 mm
10:23 AM 11.3°F-11.5°C 1.1°F-17.2°C 63% 5.0 mph S8.0 kmh S 19.0 mph30.6 kmh 30.48 in1032.2 mb 0.00 in0.0 mm 0.00 in0.0 mm 0.00 in0.0 mm
10:28 AM 11.6°F-11.3°C 1.4°F-17.0°C 63% 5.0 mph SSW8.0 kmh SSW 19.0 mph30.6 kmh 30.48 in1032.2 mb 0.00 in0.0 mm 0.00 in0.0 mm 0.00 in0.0 mm
10:33 AM 11.9°F-11.2°C 1.6°F-16.9°C 63% 14.0 mph S22.5 kmh S 19.0 mph30.6 kmh 30.47 in1031.8 mb 0.00 in0.0 mm 0.00 in0.0 mm 0.00 in0.0 mm
10:38 AM 11.9°F-11.2°C 1.6°F-16.9°C 63% 15.0 mph S24.1 kmh S 22.0 mph35.4 kmh 30.47 in1031.8 mb 0.00 in0.0 mm 0.00 in0.0 mm 0.00 in0.0 mm
10:43 AM 12.2°F-11.0°C 1.9°F-16.7°C 63% 12.0 mph SSW19.3 kmh SSW 22.0 mph35.4 kmh 30.47 in1031.8 mb 0.00 in0.0 mm 0.00 in0.0 mm 0.00 in0.0 mm
10:48 AM 12.4°F-10.9°C 1.8°F-16.8°C 62% 18.0 mph S29.0 kmh S 25.0 mph40.2 kmh 30.46 in1031.5 mb 0.00 in0.0 mm 0.00 in0.0 mm 0.00 in0.0 mm
10:53 AM 12.6°F-10.8°C 2.0°F-16.7°C 62% 16.0 mph S25.7 kmh S 25.0 mph40.2 kmh 30.45 in1031.2 mb 0.00 in0.0 mm 0.00 in0.0 mm 0.00 in0.0 mm
10:58 AM 12.8°F-10.7°C 2.1°F-16.6°C 62% 13.0 mph SW20.9 kmh SW 25.0 mph40.2 kmh 30.45 in1031.2 mb 0.00 in0.0 mm 0.00 in0.0 mm 0.00 in0.0 mm
11:03 AM 12.9°F-10.6°C 2.2°F-16.6°C 62% 12.0 mph SSW19.3 kmh SSW 25.0 mph40.2 kmh 30.45 in1031.2 mb 0.00 in0.0 mm 0.00 in0.0 mm 0.00 in0.0 mm
11:08 AM 13.1°F-10.5°C 2.1°F-16.6°C 61% 14.0 mph SE22.5 kmh SE 21.0 mph33.8 kmh 30.44 in1030.8 mb 0.00 in0.0 mm 0.00 in0.0 mm 0.00 in0.0 mm
11:13 AM 13.3°F-10.4°C 2.3°F-16.5°C 61% 19.0 mph S30.6 kmh S 21.0 mph33.8 kmh 30.44 in1030.8 mb 0.00 in0.0 mm 0.00 in0.0 mm 0.00 in0.0 mm
11:18 AM 13.4°F-10.3°C 2.3°F-16.5°C 61% 10.0 mph SSW16.1 kmh SSW 21.0 mph33.8 kmh 30.43 in1030.5 mb 0.00 in0.0 mm 0.00 in0.0 mm 0.00 in0.0 mm
11:23 AM 13.5°F-10.3°C 2.4°F-16.4°C 61% 12.0 mph SSW19.3 kmh SSW 21.0 mph33.8 kmh 30.43 in1030.5 mb 0.00 in0.0 mm 0.00 in0.0 mm 0.00 in0.0 mm
11:28 AM 13.7°F-10.2°C 2.6°F-16.3°C 61% 15.0 mph S24.1 kmh S 21.0 mph33.8 kmh 30.43 in1030.5 mb 0.00 in0.0 mm 0.00 in0.0 mm 0.00 in0.0 mm
11:33 AM 13.8°F-10.1°C 2.7°F-16.3°C 61% 17.0 mph S27.4 kmh S 21.0 mph33.8 kmh 30.42 in1030.1 mb 0.00 in0.0 mm 0.00 in0.0 mm 0.00 in0.0 mm
11:38 AM 14.0°F-10.0°C 2.9°F-16.2°C 61% 13.0 mph SSW20.9 kmh SSW 25.0 mph40.2 kmh 30.41 in1029.8 mb 0.00 in0.0 mm 0.00 in0.0 mm 0.00 in0.0 mm
11:43 AM 14.2°F-9.9°C 2.7°F-16.3°C 60% 15.0 mph SSW24.1 kmh SSW 25.0 mph40.2 kmh 30.41 in1029.8 mb 0.00 in0.0 mm 0.00 in0.0 mm 0.00 in0.0 mm
11:48 AM 14.5°F-9.7°C 3.0°F-16.1°C 60% 9.0 mph SSE14.5 kmh SSE 25.0 mph40.2 kmh 30.40 in1029.5 mb 0.00 in0.0 mm 0.00 in0.0 mm 0.00 in0.0 mm
11:53 AM 14.9°F-9.5°C 3.4°F-15.9°C 60% 10.0 mph SSE16.1 kmh SSE 25.0 mph40.2 kmh 30.40 in1029.5 mb 0.00 in0.0 mm 0.00 in0.0 mm 0.00 in0.0 mm
11:58 AM 15.2°F-9.3°C 2.9°F-16.2°C 58% 15.0 mph SSW24.1 kmh SSW 20.0 mph32.2 kmh 30.39 in1029.1 mb 0.00 in0.0 mm 0.00 in0.0 mm 0.00 in0.0 mm
12:03 PM 15.6°F-9.1°C 3.3°F-15.9°C 58% 9.0 mph S14.5 kmh S 20.0 mph32.2 kmh 30.39 in1029.1 mb 0.00 in0.0 mm 0.00 in0.0 mm 0.00 in0.0 mm
12:08 PM 15.8°F-9.0°C 3.1°F-16.1°C 57% 11.0 mph S17.7 kmh S 20.0 mph32.2 kmh 30.38 in1028.8 mb 0.00 in0.0 mm 0.00 in0.0 mm 0.00 in0.0 mm
12:13 PM 16.0°F-8.9°C 3.3°F-15.9°C 57% 9.0 mph S14.5 kmh S 20.0 mph32.2 kmh 30.38 in1028.8 mb 0.00 in0.0 mm 0.00 in0.0 mm 0.00 in0.0 mm
12:18 PM 16.3°F-8.7°C 3.6°F-15.8°C 57% 11.0 mph SW17.7 kmh SW 16.0 mph25.7 kmh 30.38 in1028.8 mb 0.00 in0.0 mm 0.00 in0.0 mm 0.00 in0.0 mm
12:23 PM 16.5°F-8.6°C 3.7°F-15.7°C 57% 9.0 mph SE14.5 kmh SE 16.0 mph25.7 kmh 30.37 in1028.4 mb 0.00 in0.0 mm 0.00 in0.0 mm 0.00 in0.0 mm
12:28 PM 16.6°F-8.6°C 3.4°F-15.9°C 56% 8.0 mph SSE12.9 kmh SSE 19.0 mph30.6 kmh 30.37 in1028.4 mb 0.00 in0.0 mm 0.00 in0.0 mm 0.00 in0.0 mm
12:33 PM 16.8°F-8.4°C 3.6°F-15.8°C 56% 11.0 mph S17.7 kmh S 24.0 mph38.6 kmh 30.36 in1028.1 mb 0.00 in0.0 mm 0.00 in0.0 mm 0.00 in0.0 mm
12:38 PM 17.0°F-8.3°C 3.4°F-15.9°C 55% 9.0 mph SSW14.5 kmh SSW 24.0 mph38.6 kmh 30.36 in1028.1 mb 0.00 in0.0 mm 0.00 in0.0 mm 0.00 in0.0 mm
01:10 PM 18.4°F-7.6°C 3.9°F-15.6°C 53% 12.0 mph S19.3 kmh S 18.0 mph29.0 kmh 30.33 in1027.1 mb 0.00 in0.0 mm 0.00 in0.0 mm 0.00 in0.0 mm
01:15 PM 18.6°F-7.4°C 4.1°F-15.5°C 53% 7.0 mph S11.3 kmh S 21.0 mph33.8 kmh 30.33 in1027.1 mb 0.00 in0.0 mm 0.00 in0.0 mm 0.00 in0.0 mm
01:20 PM 18.9°F-7.3°C 4.4°F-15.3°C 53% 7.0 mph SW11.3 kmh SW 21.0 mph33.8 kmh 30.33 in1027.1 mb 0.00 in0.0 mm 0.00 in0.0 mm 0.00 in0.0 mm
01:25 PM 19.1°F-7.2°C 4.1°F-15.5°C 52% 7.0 mph SSW11.3 kmh SSW 21.0 mph33.8 kmh 30.32 in1026.8 mb 0.00 in0.0 mm 0.00 in0.0 mm 0.00 in0.0 mm
01:30 PM 19.3°F-7.1°C 4.3°F-15.4°C 52% 17.0 mph SSW27.4 kmh SSW 21.0 mph33.8 kmh 30.32 in1026.8 mb 0.00 in0.0 mm 0.00 in0.0 mm 0.00 in0.0 mm
01:35 PM 19.5°F-6.9°C 4.5°F-15.3°C 52% 9.0 mph S14.5 kmh S 19.0 mph30.6 kmh 30.32 in1026.8 mb 0.00 in0.0 mm 0.00 in0.0 mm 0.00 in0.0 mm
01:40 PM 19.7°F-6.8°C 4.7°F-15.2°C 52% 7.0 mph S11.3 kmh S 19.0 mph30.6 kmh 30.31 in1026.4 mb 0.00 in0.0 mm 0.00 in0.0 mm 0.00 in0.0 mm
01:45 PM 19.8°F-6.8°C 4.8°F-15.1°C 52% 9.0 mph SE14.5 kmh SE 19.0 mph30.6 kmh 30.31 in1026.4 mb 0.00 in0.0 mm 0.00 in0.0 mm 0.00 in0.0 mm
01:50 PM 19.8°F-6.8°C 4.8°F-15.1°C 52% 4.0 mph S6.4 kmh S 19.0 mph30.6 kmh 30.31 in1026.4 mb 0.00 in0.0 mm 0.00 in0.0 mm 0.00 in0.0 mm
01:55 PM 19.9°F-6.7°C 4.4°F-15.3°C 51% 8.0 mph SE12.9 kmh SE 19.0 mph30.6 kmh 30.30 in1026.1 mb 0.00 in0.0 mm 0.00 in0.0 mm 0.00 in0.0 mm
02:00 PM 20.2°F-6.6°C 4.7°F-15.2°C 51% 11.0 mph S17.7 kmh S 19.0 mph30.6 kmh 30.30 in1026.1 mb 0.00 in0.0 mm 0.00 in0.0 mm 0.00 in0.0 mm
02:05 PM 20.4°F-6.4°C 4.9°F-15.1°C 51% 8.0 mph S12.9 kmh S 18.0 mph29.0 kmh 30.30 in1026.1 mb 0.00 in0.0 mm 0.00 in0.0 mm 0.00 in0.0 mm
02:10 PM 20.5°F-6.4°C 5.0°F-15.0°C 51% 6.0 mph S9.7 kmh S 18.0 mph29.0 kmh 30.29 in1025.7 mb 0.00 in0.0 mm 0.00 in0.0 mm 0.00 in0.0 mm
02:15 PM 20.6°F-6.3°C 5.1°F-14.9°C 51% 11.0 mph S17.7 kmh S 17.0 mph27.4 kmh 30.29 in1025.7 mb 0.00 in0.0 mm 0.00 in0.0 mm 0.00 in0.0 mm
02:20 PM 20.6°F-6.3°C 5.1°F-14.9°C 51% 11.0 mph S17.7 kmh S 17.0 mph27.4 kmh 30.29 in1025.7 mb 0.00 in0.0 mm 0.00 in0.0 mm 0.00 in0.0 mm
02:25 PM 20.7°F-6.3°C 5.2°F-14.9°C 51% 8.0 mph SSW12.9 kmh SSW 16.0 mph25.7 kmh 30.28 in1025.4 mb 0.00 in0.0 mm 0.00 in0.0 mm 0.00 in0.0 mm
02:30 PM 20.8°F-6.2°C 5.2°F-14.9°C 51% 10.0 mph SSW16.1 kmh SSW 17.0 mph27.4 kmh 30.28 in1025.4 mb 0.00 in0.0 mm 0.00 in0.0 mm 0.00 in0.0 mm
02:35 PM 21.0°F-6.1°C 5.0°F-15.0°C 50% 8.0 mph SE12.9 kmh SE 17.0 mph27.4 kmh 30.27 in1025.1 mb 0.00 in0.0 mm 0.00 in0.0 mm 0.00 in0.0 mm
02:40 PM 21.2°F-6.0°C 5.2°F-14.9°C 50% 10.0 mph S16.1 kmh S 17.0 mph27.4 kmh 30.27 in1025.1 mb 0.00 in0.0 mm 0.00 in0.0 mm 0.00 in0.0 mm
02:45 PM 21.4°F-5.9°C 4.9°F-15.1°C 49% 9.0 mph SSW14.5 kmh SSW 17.0 mph27.4 kmh 30.27 in1025.1 mb 0.00 in0.0 mm 0.00 in0.0 mm 0.00 in0.0 mm
02:50 PM 21.8°F-5.7°C 5.7°F-14.6°C 50% 9.0 mph S14.5 kmh S 15.0 mph24.1 kmh 30.27 in1025.1 mb 0.00 in0.0 mm 0.00 in0.0 mm 0.00 in0.0 mm
02:57 PM 22.4°F-5.3°C 5.8°F-14.6°C 49% 11.0 mph SSW17.7 kmh SSW 13.0 mph20.9 kmh 30.26 in1024.7 mb 0.00 in0.0 mm 0.00 in0.0 mm 0.00 in0.0 mm
03:02 PM 22.7°F-5.2°C 5.6°F-14.7°C 48% 14.0 mph SSW22.5 kmh SSW 16.0 mph25.7 kmh 30.25 in1024.4 mb 0.00 in0.0 mm 0.00 in0.0 mm 0.00 in0.0 mm
03:07 PM 23.0°F-5.0°C 5.9°F-14.5°C 48% 9.0 mph SSW14.5 kmh SSW 18.0 mph29.0 kmh 30.25 in1024.4 mb 0.00 in0.0 mm 0.00 in0.0 mm 0.00 in0.0 mm
03:12 PM 23.3°F-4.8°C 6.2°F-14.3°C 48% 8.0 mph SSW12.9 kmh SSW 18.0 mph29.0 kmh 30.25 in1024.4 mb 0.00 in0.0 mm 0.00 in0.0 mm 0.00 in0.0 mm
03:18 PM 23.5°F-4.7°C 5.4°F-14.8°C 46% 7.0 mph S11.3 kmh S 13.0 mph20.9 kmh 30.25 in1024.4 mb 0.00 in0.0 mm 0.00 in0.0 mm 0.00 in0.0 mm
03:23 PM 23.8°F-4.6°C 5.7°F-14.6°C 46% 13.0 mph S20.9 kmh S 16.0 mph25.7 kmh 30.25 in1024.4 mb 0.00 in0.0 mm 0.00 in0.0 mm 0.00 in0.0 mm
03:28 PM 23.9°F-4.5°C 5.2°F-14.9°C 45% 7.0 mph S11.3 kmh S 22.0 mph35.4 kmh 30.25 in1024.4 mb 0.00 in0.0 mm 0.00 in0.0 mm 0.00 in0.0 mm
03:33 PM 24.1°F-4.4°C 5.4°F-14.8°C 45% 8.0 mph SSW12.9 kmh SSW 22.0 mph35.4 kmh 30.25 in1024.4 mb 0.00 in0.0 mm 0.00 in0.0 mm 0.00 in0.0 mm
03:38 PM 24.2°F-4.3°C 5.5°F-14.7°C 45% 7.0 mph S11.3 kmh S 22.0 mph35.4 kmh 30.24 in1024.0 mb 0.00 in0.0 mm 0.00 in0.0 mm 0.00 in0.0 mm
03:43 PM 24.3°F-4.3°C 5.6°F-14.7°C 45% 9.0 mph SSW14.5 kmh SSW 22.0 mph35.4 kmh 30.25 in1024.4 mb 0.00 in0.0 mm 0.00 in0.0 mm 0.00 in0.0 mm
03:48 PM 24.4°F-4.2°C 5.2°F-14.9°C 44% 9.0 mph SSE14.5 kmh SSE 16.0 mph25.7 kmh 30.24 in1024.0 mb 0.00 in0.0 mm 0.00 in0.0 mm 0.00 in0.0 mm
03:53 PM 24.5°F-4.2°C 5.8°F-14.6°C 45% 10.0 mph S16.1 kmh S 17.0 mph27.4 kmh 30.24 in1024.0 mb 0.00 in0.0 mm 0.00 in0.0 mm 0.00 in0.0 mm
03:58 PM 24.5°F-4.2°C 5.8°F-14.6°C 45% 8.0 mph SSW12.9 kmh SSW 21.0 mph33.8 kmh 30.24 in1024.0 mb 0.00 in0.0 mm 0.00 in0.0 mm 0.00 in0.0 mm
04:03 PM 24.6°F-4.1°C 5.9°F-14.5°C 45% 12.0 mph S19.3 kmh S 21.0 mph33.8 kmh 30.23 in1023.7 mb 0.00 in0.0 mm 0.00 in0.0 mm 0.00 in0.0 mm
04:08 PM 24.6°F-4.1°C 5.9°F-14.5°C 45% 9.0 mph S14.5 kmh S 21.0 mph33.8 kmh 30.23 in1023.7 mb 0.00 in0.0 mm 0.00 in0.0 mm 0.00 in0.0 mm
04:13 PM 24.6°F-4.1°C 5.4°F-14.8°C 44% 10.0 mph SSE16.1 kmh SSE 21.0 mph33.8 kmh 30.23 in1023.7 mb 0.00 in0.0 mm 0.00 in0.0 mm 0.00 in0.0 mm
04:18 PM 24.6°F-4.1°C 5.4°F-14.8°C 44% 13.0 mph S20.9 kmh S 19.0 mph30.6 kmh 30.23 in1023.7 mb 0.00 in0.0 mm 0.00 in0.0 mm 0.00 in0.0 mm
04:23 PM 24.6°F-4.1°C 5.4°F-14.8°C 44% 10.0 mph S16.1 kmh S 19.0 mph30.6 kmh 30.24 in1024.0 mb 0.00 in0.0 mm 0.00 in0.0 mm 0.00 in0.0 mm
04:28 PM 24.6°F-4.1°C 5.9°F-14.5°C 45% 7.0 mph S11.3 kmh S 22.0 mph35.4 kmh 30.23 in1023.7 mb 0.00 in0.0 mm 0.00 in0.0 mm 0.00 in0.0 mm
04:33 PM 24.6°F-4.1°C 5.9°F-14.5°C 45% 10.0 mph S16.1 kmh S 22.0 mph35.4 kmh 30.23 in1023.7 mb 0.00 in0.0 mm 0.00 in0.0 mm 0.00 in0.0 mm
04:38 PM 24.6°F-4.1°C 5.9°F-14.5°C 45% 8.0 mph SSE12.9 kmh SSE 22.0 mph35.4 kmh 30.23 in1023.7 mb 0.00 in0.0 mm 0.00 in0.0 mm 0.00 in0.0 mm
04:43 PM 24.6°F-4.1°C 6.4°F-14.2°C 46% 14.0 mph SSE22.5 kmh SSE 22.0 mph35.4 kmh 30.23 in1023.7 mb 0.00 in0.0 mm 0.00 in0.0 mm 0.00 in0.0 mm
04:48 PM 24.6°F-4.1°C 6.4°F-14.2°C 46% 8.0 mph SSW12.9 kmh SSW 18.0 mph29.0 kmh 30.23 in1023.7 mb 0.00 in0.0 mm 0.00 in0.0 mm 0.00 in0.0 mm
04:53 PM 24.6°F-4.1°C 6.4°F-14.2°C 46% 10.0 mph SSW16.1 kmh SSW 18.0 mph29.0 kmh 30.23 in1023.7 mb 0.00 in0.0 mm 0.00 in0.0 mm 0.00 in0.0 mm
04:58 PM 24.6°F-4.1°C 6.4°F-14.2°C 46% 11.0 mph SSW17.7 kmh SSW 19.0 mph30.6 kmh 30.23 in1023.7 mb 0.00 in0.0 mm 0.00 in0.0 mm 0.00 in0.0 mm
05:03 PM 24.5°F-4.2°C 6.3°F-14.3°C 46% 13.0 mph SW20.9 kmh SW 19.0 mph30.6 kmh 30.23 in1023.7 mb 0.00 in0.0 mm 0.00 in0.0 mm 0.00 in0.0 mm
05:08 PM 24.6°F-4.1°C 6.4°F-14.2°C 46% 8.0 mph S12.9 kmh S 19.0 mph30.6 kmh 30.23 in1023.7 mb 0.00 in0.0 mm 0.00 in0.0 mm 0.00 in0.0 mm
05:13 PM 24.6°F-4.1°C 6.4°F-14.2°C 46% 11.0 mph S17.7 kmh S 22.0 mph35.4 kmh 30.22 in1023.4 mb 0.00 in0.0 mm 0.00 in0.0 mm 0.00 in0.0 mm
05:18 PM 24.6°F-4.1°C 6.4°F-14.2°C 46% 8.0 mph SSW12.9 kmh SSW 22.0 mph35.4 kmh 30.22 in1023.4 mb 0.00 in0.0 mm 0.00 in0.0 mm 0.00 in0.0 mm
05:23 PM 24.7°F-4.1°C 6.5°F-14.2°C 46% 15.0 mph SSW24.1 kmh SSW 22.0 mph35.4 kmh 30.22 in1023.4 mb 0.00 in0.0 mm 0.00 in0.0 mm 0.00 in0.0 mm
05:28 PM 24.7°F-4.1°C 7.0°F-13.9°C 47% 15.0 mph S24.1 kmh S 22.0 mph35.4 kmh 30.22 in1023.4 mb 0.00 in0.0 mm 0.00 in0.0 mm 0.00 in0.0 mm
05:58 PM 25.2°F-3.8°C 7.4°F-13.7°C 47% 17.0 mph S27.4 kmh S 24.0 mph38.6 kmh 30.22 in1023.4 mb 0.00 in0.0 mm 0.00 in0.0 mm 0.00 in0.0 mm
06:03 PM 25.4°F-3.7°C 7.6°F-13.6°C 47% 16.0 mph S25.7 kmh S 19.0 mph30.6 kmh 30.21 in1023.0 mb 0.00 in0.0 mm 0.00 in0.0 mm 0.00 in0.0 mm
06:14 PM 25.5°F-3.6°C 7.7°F-13.5°C 47% 12.0 mph SSW19.3 kmh SSW 15.0 mph24.1 kmh 30.22 in1023.4 mb 0.00 in0.0 mm 0.00 in0.0 mm 0.00 in0.0 mm
06:19 PM 25.5°F-3.6°C 7.2°F-13.8°C 46% 12.0 mph SSW19.3 kmh SSW 18.0 mph29.0 kmh 30.22 in1023.4 mb 0.00 in0.0 mm 0.00 in0.0 mm 0.00 in0.0 mm
06:24 PM 25.5°F-3.6°C 7.2°F-13.8°C 46% 11.0 mph S17.7 kmh S 21.0 mph33.8 kmh 30.22 in1023.4 mb 0.00 in0.0 mm 0.00 in0.0 mm 0.00 in0.0 mm
06:29 PM 25.4°F-3.7°C 7.6°F-13.6°C 47% 12.0 mph S19.3 kmh S 21.0 mph33.8 kmh 30.22 in1023.4 mb 0.00 in0.0 mm 0.00 in0.0 mm 0.00 in0.0 mm
06:34 PM 25.5°F-3.6°C 7.7°F-13.5°C 47% 16.0 mph S25.7 kmh S 21.0 mph33.8 kmh 30.22 in1023.4 mb 0.00 in0.0 mm 0.00 in0.0 mm 0.00 in0.0 mm
06:39 PM 25.5°F-3.6°C 7.7°F-13.5°C 47% 7.0 mph S11.3 kmh S 21.0 mph33.8 kmh 30.21 in1023.0 mb 0.00 in0.0 mm 0.00 in0.0 mm 0.00 in0.0 mm
06:44 PM 25.5°F-3.6°C 7.7°F-13.5°C 47% 8.0 mph S12.9 kmh S 20.0 mph32.2 kmh 30.21 in1023.0 mb 0.00 in0.0 mm 0.00 in0.0 mm 0.00 in0.0 mm
06:49 PM 25.5°F-3.6°C 7.7°F-13.5°C 47% 10.0 mph S16.1 kmh S 20.0 mph32.2 kmh 30.21 in1023.0 mb 0.00 in0.0 mm 0.00 in0.0 mm 0.00 in0.0 mm
06:54 PM 25.5°F-3.6°C 8.2°F-13.2°C 48% 13.0 mph SSE20.9 kmh SSE 20.0 mph32.2 kmh 30.21 in1023.0 mb 0.00 in0.0 mm 0.00 in0.0 mm 0.00 in0.0 mm
06:59 PM 25.6°F-3.6°C 8.3°F-13.2°C 48% 16.0 mph SSW25.7 kmh SSW 20.0 mph32.2 kmh 30.21 in1023.0 mb 0.00 in0.0 mm 0.00 in0.0 mm 0.00 in0.0 mm
07:04 PM 25.7°F-3.5°C 8.4°F-13.1°C 48% 21.0 mph SSE33.8 kmh SSE 21.0 mph33.8 kmh 30.21 in1023.0 mb 0.00 in0.0 mm 0.00 in0.0 mm 0.00 in0.0 mm
07:09 PM 25.8°F-3.4°C 8.5°F-13.1°C 48% 13.0 mph S20.9 kmh S 22.0 mph35.4 kmh 30.21 in1023.0 mb 0.00 in0.0 mm 0.00 in0.0 mm 0.00 in0.0 mm
07:14 PM 25.9°F-3.4°C 8.6°F-13.0°C 48% 9.0 mph S14.5 kmh S 22.0 mph35.4 kmh 30.21 in1023.0 mb 0.00 in0.0 mm 0.00 in0.0 mm 0.00 in0.0 mm
07:19 PM 26.0°F-3.3°C 8.6°F-13.0°C 48% 8.0 mph S12.9 kmh S 22.0 mph35.4 kmh 30.21 in1023.0 mb 0.00 in0.0 mm 0.00 in0.0 mm 0.00 in0.0 mm
07:24 PM 26.2°F-3.2°C 9.3°F-12.6°C 49% 18.0 mph S29.0 kmh S 22.0 mph35.4 kmh 30.21 in1023.0 mb 0.00 in0.0 mm 0.00 in0.0 mm 0.00 in0.0 mm
07:29 PM 26.3°F-3.2°C 8.9°F-12.8°C 48% 8.0 mph SSE12.9 kmh SSE 22.0 mph35.4 kmh 30.21 in1023.0 mb 0.00 in0.0 mm 0.00 in0.0 mm 0.00 in0.0 mm
07:34 PM 26.4°F-3.1°C 9.5°F-12.5°C 49% 9.0 mph S14.5 kmh S 22.0 mph35.4 kmh 30.21 in1023.0 mb 0.00 in0.0 mm 0.00 in0.0 mm 0.00 in0.0 mm
07:39 PM 26.4°F-3.1°C 9.5°F-12.5°C 49% 10.0 mph S16.1 kmh S 22.0 mph35.4 kmh 30.21 in1023.0 mb 0.00 in0.0 mm 0.00 in0.0 mm 0.00 in0.0 mm
07:44 PM 26.5°F-3.1°C 9.6°F-12.4°C 49% 14.0 mph SSW22.5 kmh SSW 20.0 mph32.2 kmh 30.21 in1023.0 mb 0.00 in0.0 mm 0.00 in0.0 mm 0.00 in0.0 mm
07:49 PM 26.6°F-3.0°C 9.7°F-12.4°C 49% 9.0 mph S14.5 kmh S 20.0 mph32.2 kmh 30.20 in1022.7 mb 0.00 in0.0 mm 0.00 in0.0 mm 0.00 in0.0 mm
07:54 PM 26.6°F-3.0°C 9.7°F-12.4°C 49% 11.0 mph SW17.7 kmh SW 20.0 mph32.2 kmh 30.20 in1022.7 mb 0.00 in0.0 mm 0.00 in0.0 mm 0.00 in0.0 mm
07:59 PM 26.8°F-2.9°C 9.9°F-12.3°C 49% 13.0 mph SSW20.9 kmh SSW 21.0 mph33.8 kmh 30.20 in1022.7 mb 0.00 in0.0 mm 0.00 in0.0 mm 0.00 in0.0 mm
08:04 PM 26.8°F-2.9°C 9.9°F-12.3°C 49% 9.0 mph S14.5 kmh S 21.0 mph33.8 kmh 30.20 in1022.7 mb 0.00 in0.0 mm 0.00 in0.0 mm 0.00 in0.0 mm
08:09 PM 26.9°F-2.8°C 9.9°F-12.3°C 49% 12.0 mph SSW19.3 kmh SSW 21.0 mph33.8 kmh 30.20 in1022.7 mb 0.00 in0.0 mm 0.00 in0.0 mm 0.00 in0.0 mm
08:14 PM 27.0°F-2.8°C 10.0°F-12.2°C 49% 7.0 mph SSW11.3 kmh SSW 21.0 mph33.8 kmh 30.20 in1022.7 mb 0.00 in0.0 mm 0.00 in0.0 mm 0.00 in0.0 mm
08:19 PM 27.0°F-2.8°C 10.0°F-12.2°C 49% 10.0 mph SSW16.1 kmh SSW 21.0 mph33.8 kmh 30.19 in1022.4 mb 0.00 in0.0 mm 0.00 in0.0 mm 0.00 in0.0 mm
08:24 PM 27.0°F-2.8°C 10.0°F-12.2°C 49% 11.0 mph S17.7 kmh S 21.0 mph33.8 kmh 30.19 in1022.4 mb 0.00 in0.0 mm 0.00 in0.0 mm 0.00 in0.0 mm
08:29 PM 27.0°F-2.8°C 10.0°F-12.2°C 49% 9.0 mph SW14.5 kmh SW 21.0 mph33.8 kmh 30.19 in1022.4 mb 0.00 in0.0 mm 0.00 in0.0 mm 0.00 in0.0 mm
08:34 PM 27.1°F-2.7°C 10.6°F-11.9°C 50% 17.0 mph SSW27.4 kmh SSW 21.0 mph33.8 kmh 30.18 in1022.0 mb 0.00 in0.0 mm 0.00 in0.0 mm 0.00 in0.0 mm
08:39 PM 27.1°F-2.7°C 10.1°F-12.2°C 49% 13.0 mph SSE20.9 kmh SSE 24.0 mph38.6 kmh 30.18 in1022.0 mb 0.00 in0.0 mm 0.00 in0.0 mm 0.00 in0.0 mm
08:44 PM 27.2°F-2.7°C 10.7°F-11.8°C 50% 13.0 mph SSW20.9 kmh SSW 29.0 mph46.7 kmh 30.18 in1022.0 mb 0.00 in0.0 mm 0.00 in0.0 mm 0.00 in0.0 mm
08:49 PM 27.2°F-2.7°C 10.2°F-12.1°C 49% 20.0 mph S32.2 kmh S 29.0 mph46.7 kmh 30.18 in1022.0 mb 0.00 in0.0 mm 0.00 in0.0 mm 0.00 in0.0 mm
08:54 PM 27.3°F-2.6°C 10.3°F-12.1°C 49% 11.0 mph S17.7 kmh S 29.0 mph46.7 kmh 30.18 in1022.0 mb 0.00 in0.0 mm 0.00 in0.0 mm 0.00 in0.0 mm
08:59 PM 27.3°F-2.6°C 10.3°F-12.1°C 49% 10.0 mph SW16.1 kmh SW 29.0 mph46.7 kmh 30.18 in1022.0 mb 0.00 in0.0 mm 0.00 in0.0 mm 0.00 in0.0 mm
09:04 PM 27.5°F-2.5°C 10.5°F-11.9°C 49% 10.0 mph SSW16.1 kmh SSW 24.0 mph38.6 kmh 30.18 in1022.0 mb 0.00 in0.0 mm 0.00 in0.0 mm 0.00 in0.0 mm
09:09 PM 27.6°F-2.4°C 11.1°F-11.6°C 50% 18.0 mph SSW29.0 kmh SSW 24.0 mph38.6 kmh 30.17 in1021.7 mb 0.00 in0.0 mm 0.00 in0.0 mm 0.00 in0.0 mm
09:14 PM 27.6°F-2.4°C 11.1°F-11.6°C 50% 22.0 mph SSE35.4 kmh SSE 24.0 mph38.6 kmh 30.17 in1021.7 mb 0.00 in0.0 mm 0.00 in0.0 mm 0.00 in0.0 mm
09:19 PM 27.8°F-2.3°C 11.2°F-11.6°C 50% 11.0 mph S17.7 kmh S 26.0 mph41.8 kmh 30.17 in1021.7 mb 0.00 in0.0 mm 0.00 in0.0 mm 0.00 in0.0 mm
09:24 PM 27.9°F-2.3°C 11.3°F-11.5°C 50% 17.0 mph S27.4 kmh S 26.0 mph41.8 kmh 30.17 in1021.7 mb 0.00 in0.0 mm 0.00 in0.0 mm 0.00 in0.0 mm
09:29 PM 27.9°F-2.3°C 11.8°F-11.2°C 51% 14.0 mph S22.5 kmh S 26.0 mph41.8 kmh 30.17 in1021.7 mb 0.00 in0.0 mm 0.00 in0.0 mm 0.00 in0.0 mm
09:34 PM 27.9°F-2.3°C 11.8°F-11.2°C 51% 13.0 mph S20.9 kmh S 26.0 mph41.8 kmh 30.17 in1021.7 mb 0.00 in0.0 mm 0.00 in0.0 mm 0.00 in0.0 mm
09:39 PM 28.0°F-2.2°C 11.4°F-11.4°C 50% 11.0 mph S17.7 kmh S 21.0 mph33.8 kmh 30.17 in1021.7 mb 0.00 in0.0 mm 0.00 in0.0 mm 0.00 in0.0 mm
09:44 PM 28.1°F-2.2°C 12.0°F-11.1°C 51% 12.0 mph S19.3 kmh S 21.0 mph33.8 kmh 30.17 in1021.7 mb 0.00 in0.0 mm 0.00 in0.0 mm 0.00 in0.0 mm
09:49 PM 28.2°F-2.1°C 12.1°F-11.1°C 51% 14.0 mph S22.5 kmh S 21.0 mph33.8 kmh 30.16 in1021.3 mb 0.00 in0.0 mm 0.00 in0.0 mm 0.00 in0.0 mm
09:54 PM 28.2°F-2.1°C 11.6°F-11.3°C 50% 14.0 mph S22.5 kmh S 21.0 mph33.8 kmh 30.17 in1021.7 mb 0.00 in0.0 mm 0.00 in0.0 mm 0.00 in0.0 mm
09:59 PM 28.2°F-2.1°C 12.1°F-11.1°C 51% 18.0 mph S29.0 kmh S 20.0 mph32.2 kmh 30.16 in1021.3 mb 0.00 in0.0 mm 0.00 in0.0 mm 0.00 in0.0 mm
10:04 PM 28.3°F-2.1°C 12.2°F-11.0°C 51% 13.0 mph S20.9 kmh S 20.0 mph32.2 kmh 30.16 in1021.3 mb 0.00 in0.0 mm 0.00 in0.0 mm 0.00 in0.0 mm
10:09 PM 28.5°F-1.9°C 12.4°F-10.9°C 51% 12.0 mph S19.3 kmh S 19.0 mph30.6 kmh 30.16 in1021.3 mb 0.00 in0.0 mm 0.00 in0.0 mm 0.00 in0.0 mm
10:14 PM 28.6°F-1.9°C 12.4°F-10.9°C 51% 9.0 mph S14.5 kmh S 19.0 mph30.6 kmh 30.15 in1021.0 mb 0.00 in0.0 mm 0.00 in0.0 mm 0.00 in0.0 mm
10:19 PM 28.8°F-1.8°C 12.2°F-11.0°C 50% 10.0 mph SW16.1 kmh SW 20.0 mph32.2 kmh 30.15 in1021.0 mb 0.00 in0.0 mm 0.00 in0.0 mm 0.00 in0.0 mm
10:24 PM 29.1°F-1.6°C 12.4°F-10.9°C 50% 4.0 mph S6.4 kmh S 20.0 mph32.2 kmh 30.15 in1021.0 mb 0.00 in0.0 mm 0.00 in0.0 mm 0.00 in0.0 mm
10:29 PM 29.1°F-1.6°C 12.4°F-10.9°C 50% 13.0 mph S20.9 kmh S 20.0 mph32.2 kmh 30.14 in1020.7 mb 0.00 in0.0 mm 0.00 in0.0 mm 0.00 in0.0 mm
10:34 PM 29.2°F-1.6°C 12.5°F-10.8°C 50% 12.0 mph S19.3 kmh S 22.0 mph35.4 kmh 30.14 in1020.7 mb 0.00 in0.0 mm 0.00 in0.0 mm 0.00 in0.0 mm
10:39 PM 29.3°F-1.5°C 12.6°F-10.8°C 50% 8.0 mph SE12.9 kmh SE 22.0 mph35.4 kmh 30.14 in1020.7 mb 0.00 in0.0 mm 0.00 in0.0 mm 0.00 in0.0 mm
10:44 PM 29.3°F-1.5°C 12.6°F-10.8°C 50% 10.0 mph S16.1 kmh S 22.0 mph35.4 kmh 30.14 in1020.7 mb 0.00 in0.0 mm 0.00 in0.0 mm 0.00 in0.0 mm
10:49 PM 29.3°F-1.5°C 12.6°F-10.8°C 50% 13.0 mph S20.9 kmh S 22.0 mph35.4 kmh 30.13 in1020.3 mb 0.00 in0.0 mm 0.00 in0.0 mm 0.00 in0.0 mm
10:54 PM 29.4°F-1.4°C 12.7°F-10.7°C 50% 17.0 mph S27.4 kmh S 21.0 mph33.8 kmh 30.13 in1020.3 mb 0.00 in0.0 mm 0.00 in0.0 mm 0.00 in0.0 mm
10:59 PM 29.5°F-1.4°C 12.8°F-10.7°C 50% 19.0 mph S30.6 kmh S 21.0 mph33.8 kmh 30.13 in1020.3 mb 0.00 in0.0 mm 0.00 in0.0 mm 0.00 in0.0 mm